createdAt,value
2018-11-21T00:00:53.134Z,29.77
2018-11-21T00:03:21.653Z,28.30
2018-11-21T00:05:50.117Z,26.40
2018-11-21T00:08:18.613Z,30.60
2018-11-21T00:10:47.128Z,25.83
2018-11-21T00:13:15.640Z,28.50
2018-11-21T00:15:44.151Z,27.57
2018-11-21T00:18:13.050Z,24.53
2018-11-21T00:20:41.504Z,30.30
2018-11-21T00:23:09.948Z,33.07
2018-11-21T00:25:38.426Z,33.50
2018-11-21T00:28:07.028Z,28.50
2018-11-21T00:30:35.649Z,31.33
2018-11-21T00:33:04.215Z,30.93
2018-11-21T00:35:32.515Z,26.37
2018-11-21T00:38:00.877Z,28.37
2018-11-21T00:40:29.280Z,32.37
2018-11-21T00:42:57.686Z,27.60
2018-11-21T00:45:26.107Z,29.33
2018-11-21T00:47:54.479Z,29.87
2018-11-21T00:50:22.916Z,29.37
2018-11-21T00:52:51.266Z,24.70
2018-11-21T00:55:19.651Z,22.97
2018-11-21T00:57:48.056Z,24.60
2018-11-21T01:00:16.404Z,25.77
2018-11-21T01:02:44.795Z,26.70
2018-11-21T01:05:13.217Z,20.70
2018-11-21T01:07:41.664Z,23.60
2018-11-21T01:10:10.034Z,24.30
2018-11-21T01:12:38.399Z,25.07
2018-11-21T01:15:06.962Z,25.77
2018-11-21T01:17:35.340Z,27.87
2018-11-21T01:20:03.738Z,28.10
2018-11-21T01:22:32.269Z,25.30
2018-11-21T01:25:00.611Z,24.33
2018-11-21T01:27:29.085Z,27.43
2018-11-21T01:29:57.460Z,24.77
2018-11-21T01:32:25.818Z,24.10
2018-11-21T01:34:54.173Z,21.97
2018-11-21T01:37:22.559Z,21.47
2018-11-21T01:39:50.928Z,23.73
2018-11-21T01:42:19.410Z,28.00
2018-11-21T01:44:47.770Z,28.40
2018-11-21T01:47:16.179Z,24.80
2018-11-21T01:49:44.595Z,28.60
2018-11-21T01:52:12.995Z,25.23
2018-11-21T01:54:41.444Z,20.60
2018-11-21T01:57:09.802Z,23.60
2018-11-21T01:59:38.284Z,24.00
2018-11-21T02:02:06.691Z,28.30
2018-11-21T02:04:35.072Z,22.40
2018-11-21T02:07:03.445Z,19.70
2018-11-21T02:09:31.837Z,22.17
2018-11-21T02:12:00.260Z,28.20
2018-11-21T02:14:28.613Z,23.10
2018-11-21T02:16:57.000Z,20.43
2018-11-21T02:19:25.346Z,20.37
2018-11-21T02:21:53.721Z,26.93
2018-11-21T02:24:22.103Z,20.83
2018-11-21T02:26:50.472Z,21.13
2018-11-21T02:29:18.895Z,25.93
2018-11-21T02:31:47.334Z,20.40
2018-11-21T02:34:15.831Z,23.00
2018-11-21T02:36:44.219Z,20.33
2018-11-21T02:39:12.565Z,19.30
2018-11-21T02:41:40.981Z,21.20
2018-11-21T02:44:09.365Z,22.27
2018-11-21T02:46:37.762Z,21.53
2018-11-21T02:49:06.155Z,22.30
2018-11-21T02:51:34.549Z,30.80
2018-11-21T02:54:02.911Z,23.80
2018-11-21T02:57:07.757Z,25.10
2018-11-21T02:59:36.120Z,33.17
2018-11-21T03:02:04.514Z,28.03
2018-11-21T03:04:32.871Z,22.43
2018-11-21T03:07:01.259Z,24.30
2018-11-21T03:09:29.676Z,21.90
2018-11-21T03:12:00.476Z,23.20
2018-11-21T03:14:28.921Z,26.00
2018-11-21T03:16:57.279Z,27.00
2018-11-21T03:19:25.671Z,23.93
2018-11-21T03:21:54.171Z,26.70
2018-11-21T03:24:22.719Z,20.60
2018-11-21T03:26:51.733Z,24.37
2018-11-21T03:29:20.188Z,23.90
2018-11-21T03:31:48.590Z,28.93
2018-11-21T03:34:16.995Z,24.37
2018-11-21T03:36:49.761Z,25.60
2018-11-21T03:39:19.537Z,26.67
2018-11-21T03:41:48.246Z,18.77
2018-11-21T03:44:16.652Z,22.17
2018-11-21T03:46:46.130Z,23.17
2018-11-21T03:49:14.540Z,22.17
2018-11-21T03:51:42.908Z,23.20
2018-11-21T03:54:11.280Z,24.70
2018-11-21T03:56:40.031Z,19.60
2018-11-21T03:59:08.973Z,24.03
2018-11-21T04:01:37.556Z,19.47
2018-11-21T04:04:06.525Z,19.43
2018-11-21T04:06:34.921Z,18.50
2018-11-21T04:09:04.907Z,22.00
2018-11-21T04:11:33.325Z,20.40
2018-11-21T04:14:01.707Z,18.03
2018-11-21T04:16:30.068Z,18.80
2018-11-21T04:18:58.508Z,21.83
2018-11-21T04:21:26.873Z,18.73
2018-11-21T04:23:55.268Z,19.70
2018-11-21T04:26:23.624Z,19.57
2018-11-21T04:28:52.001Z,17.10
2018-11-21T04:31:20.403Z,19.53
2018-11-21T04:33:48.769Z,20.77
2018-11-21T04:36:17.159Z,18.63
2018-11-21T04:38:45.540Z,22.23
2018-11-21T04:41:13.904Z,19.53
2018-11-21T04:43:42.287Z,21.47
2018-11-21T04:46:10.688Z,22.67
2018-11-21T04:48:39.066Z,26.70
2018-11-21T04:51:07.477Z,16.90
2018-11-21T04:53:35.856Z,23.47
2018-11-21T04:56:04.429Z,23.50
2018-11-21T04:58:32.859Z,21.50
2018-11-21T05:01:01.277Z,24.63
2018-11-21T05:03:29.719Z,18.07
2018-11-21T05:05:58.091Z,23.30
2018-11-21T05:08:26.480Z,26.70
2018-11-21T05:10:54.869Z,26.67
2018-11-21T05:13:23.256Z,24.87
2018-11-21T05:15:51.644Z,25.70
2018-11-21T05:18:20.012Z,23.87
2018-11-21T05:20:48.736Z,30.37
2018-11-21T05:23:17.110Z,22.50
2018-11-21T05:25:46.602Z,18.33
2018-11-21T05:28:13.888Z,18.47
2018-11-21T05:30:42.365Z,20.13
2018-11-21T05:33:10.756Z,20.60
2018-11-21T05:35:39.162Z,19.43
2018-11-21T05:38:07.531Z,20.90
2018-11-21T05:40:35.897Z,18.90
2018-11-21T05:43:04.275Z,19.00
2018-11-21T05:45:32.668Z,21.27
2018-11-21T05:48:01.348Z,17.30
2018-11-21T05:50:29.701Z,20.90
2018-11-21T05:52:58.125Z,23.03
2018-11-21T05:55:26.492Z,23.20
2018-11-21T05:57:54.862Z,20.57
2018-11-21T06:00:23.299Z,24.00
2018-11-21T06:02:51.660Z,21.10
2018-11-21T06:05:20.012Z,24.63
2018-11-21T06:07:48.482Z,21.50
2018-11-21T06:10:16.899Z,18.10
2018-11-21T06:12:45.307Z,21.80
2018-11-21T06:15:13.706Z,23.07
2018-11-21T06:17:42.390Z,19.33
2018-11-21T06:20:12.469Z,24.37
2018-11-21T06:22:40.849Z,16.97
2018-11-21T06:25:09.982Z,19.63
2018-11-21T06:27:38.385Z,20.03
2018-11-21T06:30:09.258Z,24.63
2018-11-21T06:32:37.632Z,23.53
2018-11-21T06:35:07.240Z,22.00
2018-11-21T06:37:35.722Z,23.13
2018-11-21T06:40:04.226Z,25.40
2018-11-21T06:42:32.610Z,21.50
2018-11-21T06:45:00.981Z,21.33
2018-11-21T06:47:29.398Z,21.20
2018-11-21T06:49:57.797Z,24.37
2018-11-21T06:52:26.157Z,18.40
2018-11-21T06:54:54.559Z,21.03
2018-11-21T06:57:22.977Z,23.07
2018-11-21T06:59:51.333Z,20.90
2018-11-21T07:02:19.694Z,23.97
2018-11-21T07:04:48.174Z,23.23
2018-11-21T07:07:16.603Z,22.60
2018-11-21T07:09:45.011Z,18.10
2018-11-21T07:12:13.395Z,19.70
2018-11-21T07:14:41.834Z,22.90
2018-11-21T07:17:10.209Z,22.70
2018-11-21T07:19:38.611Z,24.90
2018-11-21T07:22:06.980Z,24.20
2018-11-21T07:24:35.362Z,27.13
2018-11-21T07:27:03.719Z,25.83
2018-11-21T07:29:34.702Z,29.07
2018-11-21T07:32:00.478Z,29.63
2018-11-21T07:34:29.193Z,21.30
2018-11-21T07:36:57.584Z,22.53
2018-11-21T07:39:25.969Z,21.33
2018-11-21T07:41:54.357Z,25.40
2018-11-21T07:44:22.702Z,22.83
2018-11-21T07:46:51.071Z,25.87
2018-11-21T07:49:19.454Z,27.67
2018-11-21T07:51:47.798Z,24.20
2018-11-21T07:54:16.177Z,22.47
2018-11-21T07:57:12.401Z,25.47
2018-11-21T08:00:17.886Z,31.80
2018-11-21T08:02:46.378Z,26.77
2018-11-21T08:05:19.702Z,24.63
2018-11-21T08:08:03.571Z,39.43
2018-11-21T08:11:01.811Z,28.07
2018-11-21T08:13:48.910Z,27.23
2018-11-21T08:16:35.283Z,26.40
2018-11-21T08:19:32.016Z,26.00
2018-11-21T08:22:25.334Z,27.90
2018-11-21T08:25:09.995Z,32.63
2018-11-21T08:27:49.159Z,35.80
2018-11-21T08:30:17.552Z,26.97
2018-11-21T08:32:45.900Z,24.10
2018-11-21T08:35:14.284Z,27.60
2018-11-21T08:37:42.734Z,28.50
2018-11-21T08:40:11.088Z,31.87
2018-11-21T08:42:39.458Z,31.43
2018-11-21T08:45:08.879Z,30.87
2018-11-21T08:47:37.253Z,29.17
2018-11-21T08:50:08.834Z,30.70
2018-11-21T08:52:37.157Z,35.60
2018-11-21T08:55:09.005Z,26.20
2018-11-21T08:57:35.350Z,29.23
2018-11-21T09:00:03.889Z,26.37
2018-11-21T09:02:32.306Z,28.63
2018-11-21T09:05:00.683Z,34.17
2018-11-21T09:07:29.051Z,25.87
2018-11-21T09:09:57.424Z,28.07
2018-11-21T09:12:25.874Z,24.03
2018-11-21T09:14:54.225Z,27.80
2018-11-21T09:17:22.617Z,26.03
2018-11-21T09:19:50.981Z,24.87
2018-11-21T09:22:19.385Z,28.53
2018-11-21T09:24:47.727Z,32.90
2018-11-21T09:27:16.105Z,30.93
2018-11-21T09:29:44.503Z,34.13
2018-11-21T09:32:12.865Z,31.20
2018-11-21T09:34:41.262Z,27.43
2018-11-21T09:37:09.696Z,27.97
2018-11-21T09:39:38.118Z,27.40
2018-11-21T09:42:06.480Z,35.30
2018-11-21T09:44:34.849Z,30.00
2018-11-21T09:47:03.244Z,41.10
2018-11-21T09:49:31.676Z,33.90
2018-11-21T09:52:00.118Z,34.30
2018-11-21T09:54:28.453Z,36.07
2018-11-21T09:56:56.878Z,34.33
2018-11-21T09:59:25.361Z,41.00
2018-11-21T10:02:30.410Z,35.47
2018-11-21T10:04:58.844Z,35.10
2018-11-21T10:07:27.238Z,32.30
2018-11-21T10:09:55.600Z,36.50
2018-11-21T10:12:23.971Z,43.50
2018-11-21T10:14:52.324Z,32.93
2018-11-21T10:17:20.736Z,36.30
2018-11-21T10:19:49.164Z,31.77
2018-11-21T10:22:17.570Z,32.73
2018-11-21T10:24:45.966Z,38.80
2018-11-21T10:27:14.328Z,37.60
2018-11-21T10:29:42.745Z,37.50
2018-11-21T10:32:11.144Z,37.23
2018-11-21T10:34:39.535Z,28.87
2018-11-21T10:37:07.931Z,37.80
2018-11-21T10:39:36.308Z,33.10
2018-11-21T10:42:04.704Z,32.00
2018-11-21T10:44:33.074Z,35.13
2018-11-21T10:47:01.436Z,32.63
2018-11-21T10:49:29.794Z,38.47
2018-11-21T10:51:58.165Z,33.30
2018-11-21T10:54:26.563Z,31.67
2018-11-21T10:56:54.962Z,36.80
2018-11-21T10:59:23.351Z,33.13
2018-11-21T11:02:09.727Z,29.67
2018-11-21T11:04:51.806Z,38.97
2018-11-21T11:07:39.632Z,38.70
2018-11-21T11:10:32.147Z,37.07
2018-11-21T11:13:20.396Z,34.13
2018-11-21T11:15:59.018Z,34.13
2018-11-21T11:18:50.544Z,35.70
2018-11-21T11:21:36.605Z,32.30
2018-11-21T11:24:24.348Z,28.77
2018-11-21T11:27:05.528Z,31.93
2018-11-21T11:30:01.846Z,29.77
2018-11-21T11:32:52.079Z,33.50
2018-11-21T11:35:45.669Z,33.90
2018-11-21T11:38:31.721Z,31.97
2018-11-21T11:41:18.132Z,32.67
2018-11-21T11:44:04.457Z,32.77
2018-11-21T11:47:01.586Z,38.13
2018-11-21T11:49:58.290Z,33.80
2018-11-21T11:52:45.786Z,32.73
2018-11-21T11:55:51.602Z,33.03
2018-11-21T11:58:37.516Z,35.37
2018-11-21T12:01:25.031Z,34.83
2018-11-21T12:04:11.565Z,36.10
2018-11-21T12:06:59.099Z,34.30
2018-11-21T12:09:45.161Z,32.97
2018-11-21T12:12:47.972Z,31.93
2018-11-21T12:15:34.253Z,34.20
2018-11-21T12:18:20.335Z,32.53
2018-11-21T12:21:06.792Z,33.50
2018-11-21T12:23:56.597Z,32.87
2018-11-21T12:26:56.143Z,32.63
2018-11-21T12:29:42.076Z,34.30
2018-11-21T12:32:25.715Z,34.23
2018-11-21T12:35:31.462Z,35.57
2018-11-21T12:38:16.745Z,32.70
2018-11-21T12:41:19.331Z,29.63
2018-11-21T12:44:09.827Z,31.57
2018-11-21T12:46:55.907Z,31.47
2018-11-21T12:49:52.303Z,36.60
2018-11-21T12:52:32.434Z,28.80
2018-11-21T12:55:22.846Z,30.63
2018-11-21T12:58:10.915Z,35.47
2018-11-21T13:00:57.303Z,34.33
2018-11-21T13:03:35.315Z,35.90
2018-11-21T13:06:31.785Z,33.57
2018-11-21T13:09:21.723Z,29.90
2018-11-21T13:12:08.200Z,32.67
2018-11-21T13:14:54.594Z,33.80
2018-11-21T13:17:42.162Z,38.80
2018-11-21T13:20:35.492Z,36.07
2018-11-21T13:23:21.374Z,36.00
2018-11-21T13:26:27.472Z,37.30
2018-11-21T13:29:23.530Z,39.70
2018-11-21T13:32:09.670Z,39.10
2018-11-21T13:34:56.070Z,34.67
2018-11-21T13:37:42.415Z,35.57
2018-11-21T13:40:42.171Z,38.50
2018-11-21T13:43:39.003Z,36.30
2018-11-21T13:46:31.997Z,31.80
2018-11-21T13:49:31.561Z,41.33
2018-11-21T13:52:22.025Z,40.83
2018-11-21T13:54:54.477Z,40.20
2018-11-21T13:57:22.930Z,43.43
2018-11-21T13:59:51.312Z,36.50
2018-11-21T14:02:19.665Z,37.97
2018-11-21T14:04:48.504Z,32.73
2018-11-21T14:07:18.063Z,41.53
2018-11-21T14:09:47.357Z,38.20
2018-11-21T14:12:16.371Z,38.00
2018-11-21T14:14:44.758Z,38.00
2018-11-21T14:17:13.136Z,35.00
2018-11-21T14:19:41.559Z,37.50
2018-11-21T14:22:09.924Z,35.17
2018-11-21T14:24:38.266Z,41.63
2018-11-21T14:27:06.689Z,33.90
2018-11-21T14:29:35.164Z,37.53
2018-11-21T14:32:03.568Z,39.50
2018-11-21T14:34:31.968Z,40.13
2018-11-21T14:37:00.403Z,40.27
2018-11-21T14:39:28.815Z,36.70
2018-11-21T14:41:57.188Z,39.07
2018-11-21T14:44:25.548Z,40.47
2018-11-21T14:46:55.285Z,38.57
2018-11-21T14:49:24.159Z,35.63
2018-11-21T14:51:52.501Z,41.70
2018-11-21T14:54:21.243Z,39.90
2018-11-21T14:56:49.734Z,36.73
2018-11-21T14:59:18.125Z,39.33
2018-11-21T15:01:47.763Z,33.83
2018-11-21T15:04:16.645Z,39.23
2018-11-21T15:06:45.316Z,35.57
2018-11-21T15:09:14.330Z,35.50
2018-11-21T15:11:43.098Z,33.63
2018-11-21T15:14:11.642Z,34.33
2018-11-21T15:16:40.776Z,40.70
2018-11-21T15:19:09.308Z,39.63
2018-11-21T15:21:37.910Z,38.30
2018-11-21T15:24:06.449Z,40.40
2018-11-21T15:26:34.946Z,37.70
2018-11-21T15:29:03.435Z,33.10
2018-11-21T15:31:34.785Z,33.20
2018-11-21T15:34:05.028Z,39.00
2018-11-21T15:36:32.249Z,41.63
2018-11-21T15:39:01.459Z,33.40
2018-11-21T15:41:30.087Z,38.40
2018-11-21T15:43:59.064Z,31.90
2018-11-21T15:46:29.042Z,42.00
2018-11-21T15:49:03.393Z,32.00
2018-11-21T15:51:35.261Z,34.47
2018-11-21T15:54:05.215Z,41.60
2018-11-21T15:56:37.782Z,32.70
2018-11-21T15:59:09.015Z,36.17
2018-11-21T16:01:38.142Z,35.23
2018-11-21T16:04:06.758Z,31.17
2018-11-21T16:06:35.547Z,34.50
2018-11-21T16:09:11.583Z,33.23
2018-11-21T16:11:40.694Z,32.53
2018-11-21T16:14:09.123Z,26.90
2018-11-21T16:16:37.602Z,39.30
2018-11-21T16:19:06.159Z,33.63
2018-11-21T16:21:34.580Z,38.43
2018-11-21T16:24:02.983Z,33.60
2018-11-21T16:26:31.359Z,33.07
2018-11-21T16:28:59.821Z,30.80
2018-11-21T16:31:28.257Z,38.50
2018-11-21T16:33:56.649Z,40.77
2018-11-21T16:36:27.199Z,34.67
2018-11-21T16:38:53.515Z,35.47
2018-11-21T16:41:21.881Z,35.57
2018-11-21T16:43:50.255Z,35.83
2018-11-21T16:46:18.800Z,32.93
2018-11-21T16:48:47.197Z,29.10
2018-11-21T16:51:15.586Z,31.87
2018-11-21T16:53:43.983Z,34.30
2018-11-21T16:56:12.510Z,34.80
2018-11-21T16:58:40.932Z,36.43
2018-11-21T17:01:09.309Z,34.10
2018-11-21T17:03:37.708Z,35.40
2018-11-21T17:06:06.263Z,30.63
2018-11-21T17:08:34.640Z,31.30
2018-11-21T17:11:03.148Z,33.63
2018-11-21T17:13:31.619Z,33.07
2018-11-21T17:16:00.398Z,31.37
2018-11-21T17:18:28.792Z,34.83
2018-11-21T17:20:57.239Z,28.83
2018-11-21T17:23:25.684Z,36.13
2018-11-21T17:25:54.102Z,34.43
2018-11-21T17:28:22.518Z,36.43
2018-11-21T17:30:50.945Z,40.37
2018-11-21T17:33:19.398Z,32.20
2018-11-21T17:35:47.827Z,36.40
2018-11-21T17:38:16.274Z,33.00
2018-11-21T17:40:45.411Z,34.63
2018-11-21T17:43:13.977Z,32.77
2018-11-21T17:45:42.398Z,35.07
2018-11-21T17:48:10.921Z,36.47
2018-11-21T17:50:39.395Z,30.13
2018-11-21T17:53:08.779Z,32.33
2018-11-21T17:55:39.125Z,32.03
2018-11-21T17:58:07.850Z,32.50
2018-11-21T18:00:36.659Z,32.00
2018-11-21T18:03:08.697Z,39.87
2018-11-21T18:05:38.847Z,29.60
2018-11-21T18:08:07.795Z,33.30
2018-11-21T18:10:37.993Z,31.90
2018-11-21T18:13:07.103Z,34.77
2018-11-21T18:15:35.808Z,31.33
2018-11-21T18:18:04.873Z,35.80
2018-11-21T18:20:33.937Z,31.70
2018-11-21T18:23:02.706Z,31.83
2018-11-21T18:25:33.361Z,36.97
2018-11-21T18:28:02.161Z,36.10
2018-11-21T18:30:30.622Z,41.67
2018-11-21T18:32:59.318Z,40.87
2018-11-21T18:35:27.992Z,34.63
2018-11-21T18:37:56.768Z,28.93
2018-11-21T18:40:29.759Z,30.10
2018-11-21T18:42:58.531Z,31.10
2018-11-21T18:45:40.198Z,29.13
2018-11-21T18:48:09.381Z,30.33
2018-11-21T18:50:37.830Z,28.97
2018-11-21T18:53:07.601Z,31.73
2018-11-21T18:55:41.802Z,32.10
2018-11-21T18:58:35.064Z,36.80
2018-11-21T19:01:03.517Z,31.40
2018-11-21T19:03:31.959Z,30.70
2018-11-21T19:06:00.545Z,30.80
2018-11-21T19:08:29.018Z,34.70
2018-11-21T19:10:58.244Z,30.00
2018-11-21T19:13:27.517Z,28.80
2018-11-21T19:15:56.133Z,27.77
2018-11-21T19:18:24.632Z,27.70
2018-11-21T19:20:53.153Z,26.33
2018-11-21T19:23:21.636Z,31.40
2018-11-21T19:25:50.155Z,28.00
2018-11-21T19:28:18.936Z,28.23
2018-11-21T19:30:47.508Z,25.70
2018-11-21T19:33:19.670Z,25.10
2018-11-21T19:35:48.493Z,31.03
2018-11-21T19:38:17.090Z,29.53
2018-11-21T19:40:45.710Z,28.67
2018-11-21T19:43:14.232Z,29.47
2018-11-21T19:45:43.446Z,26.33
2018-11-21T19:48:12.101Z,26.67
2018-11-21T19:50:40.796Z,29.00
2018-11-21T19:53:09.557Z,25.80
2018-11-21T19:55:38.421Z,32.30
2018-11-21T19:58:06.939Z,23.40
2018-11-21T20:00:36.575Z,28.93
2018-11-21T20:03:14.239Z,29.87
2018-11-21T20:05:42.693Z,28.57
2018-11-21T20:08:11.283Z,22.50
2018-11-21T20:10:39.799Z,32.40
2018-11-21T20:13:08.674Z,35.40
2018-11-21T20:15:37.230Z,31.07
2018-11-21T20:18:06.132Z,26.53
